Time;durP1;ratioP1;P1;durP2;ratioP2;P2;SDS_P1;SDS_P2;PMS_P1;PMS_P2;Temp;Humidity;BMP_temperature;BMP_pressure;BME280_temperature;BME280_humidity;BME280_pressure;Samples;Min_cycle;Max_cycle;Signal;HPM_P1;HPM_P2
2023/09/13 00:01:47;;;;;;;32.10;17.80;;;;;;;18.01;100.00;100816.19;5046339;28;20044;-76
2023/09/13 00:04:12;;;;;;;33.17;17.97;;;;;;;17.95;100.00;100798.13;5051998;28;20062;-74
2023/09/13 00:06:39;;;;;;;28.47;16.63;;;;;;;17.91;100.00;100784.22;5063220;28;20085;-76
2023/09/13 00:09:06;;;;;;;28.83;17.75;;;;;;;17.92;100.00;100787.75;5057987;28;20081;-75
2023/09/13 00:11:32;;;;;;;27.20;15.32;;;;;;;17.90;100.00;100779.84;5049669;28;20535;-76
2023/09/13 00:13:57;;;;;;;26.33;16.42;;;;;;;17.82;100.00;100773.84;5048983;28;20023;-75
2023/09/13 00:16:22;;;;;;;30.80;16.23;;;;;;;17.80;100.00;100762.38;5065311;28;20060;-77
2023/09/13 00:18:48;;;;;;;28.13;14.37;;;;;;;17.87;100.00;100772.16;5063595;28;20404;-76
2023/09/13 00:21:13;;;;;;;26.73;14.57;;;;;;;17.88;100.00;100770.28;5064508;28;20399;-76
2023/09/13 00:23:38;;;;;;;21.30;12.47;;;;;;;17.86;100.00;100764.25;5056827;28;20063;-75
2023/09/13 00:26:04;;;;;;;30.80;13.13;;;;;;;17.91;100.00;100772.56;5050563;28;20040;-77
2023/09/13 00:28:30;;;;;;;24.58;12.10;;;;;;;17.90;100.00;100770.91;5057208;28;20095;-74
2023/09/13 00:30:57;;;;;;;23.15;12.57;;;;;;;17.90;100.00;100766.34;5053246;28;20059;-75
2023/09/13 00:33:23;;;;;;;21.40;10.38;;;;;;;17.79;100.00;100753.44;5044577;28;20017;-76
2023/09/13 00:35:49;;;;;;;;;;;;;;;17.89;100.00;100763.88;5053540;28;20687;-76
2023/09/13 00:38:15;;;;;;;20.25;9.20;;;;;;;17.85;100.00;100752.63;5069159;28;20444;-74
2023/09/13 00:40:40;;;;;;;24.75;9.77;;;;;;;17.88;100.00;100751.38;5044286;28;20028;-75
2023/09/13 00:43:06;;;;;;;18.95;8.55;;;;;;;17.83;100.00;100757.41;5044301;28;20529;-76
2023/09/13 00:45:33;;;;;;;23.77;9.20;;;;;;;17.83;100.00;100770.09;5044593;28;20025;-76
2023/09/13 00:47:59;;;;;;;14.35;6.85;;;;;;;17.86;100.00;100754.31;5052677;28;20400;-76
2023/09/13 00:50:26;;;;;;;19.60;8.07;;;;;;;17.75;100.00;100751.38;5069383;28;20016;-74
2023/09/13 00:52:52;;;;;;;31.67;10.35;;;;;;;17.65;100.00;100758.03;5046767;28;20128;-76
2023/09/13 00:55:20;;;;;;;20.73;8.07;;;;;;;17.71;100.00;100762.59;5033821;28;20108;-75
2023/09/13 00:57:46;;;;;;;17.63;7.65;;;;;;;17.64;100.00;100763.66;5043724;28;20029;-73
2023/09/13 01:00:12;;;;;;;16.13;7.95;;;;;;;17.50;100.00;100757.41;5044307;28;20040;-75
2023/09/13 01:02:39;;;;;;;21.58;8.02;;;;;;;17.74;100.00;100766.75;5044187;28;20119;-76
2023/09/13 01:05:07;;;;;;;18.85;7.95;;;;;;;17.84;100.00;100760.94;5027522;28;20934;-76
2023/09/13 01:07:33;;;;;;;17.65;7.93;;;;;;;17.79;100.00;100749.91;5045043;28;20047;-77
2023/09/13 01:09:59;;;;;;;15.35;7.35;;;;;;;17.85;100.00;100754.50;5045388;28;20033;-76
2023/09/13 01:12:25;;;;;;;16.40;9.52;;;;;;;17.65;100.00;100752.66;5045425;28;20025;-76
2023/09/13 01:14:51;;;;;;;19.50;8.30;;;;;;;17.63;100.00;100748.47;5060336;28;20085;-76
2023/09/13 01:17:27;;;;;;;14.57;7.43;;;;;;;17.61;100.00;100751.41;5043890;28;20052;-75
2023/09/13 01:20:24;;;;;;;14.10;7.15;;;;;;;17.59;100.00;100750.78;5047198;28;20048;-76
2023/09/13 01:23:18;;;;;;;18.75;7.45;;;;;;;17.63;100.00;100760.13;5044920;28;20086;-76
2023/09/13 01:25:53;;;;;;;14.13;5.90;;;;;;;17.61;100.00;100753.28;5043853;28;20174;-76
2023/09/13 01:28:34;;;;;;;19.27;5.47;;;;;;;17.64;100.00;100742.03;5049911;28;20492;-76
2023/09/13 01:31:04;;;;;;;15.82;5.63;;;;;;;17.66;100.00;100748.91;5044018;28;20504;-75
2023/09/13 01:33:29;;;;;;;12.13;4.88;;;;;;;17.70;100.00;100749.31;5049669;28;20399;-76
2023/09/13 01:35:54;;;;;;;12.17;6.07;;;;;;;17.60;100.00;100744.31;5049812;28;20017;-75
2023/09/13 01:38:20;;;;;;;19.33;4.73;;;;;;;17.60;100.00;100749.72;5048676;28;20467;-75
2023/09/13 01:40:48;;;;;;;13.33;5.50;;;;;;;17.63;100.00;100745.75;5046900;28;20094;-77
2023/09/13 01:43:14;;;;;;;11.68;4.88;;;;;;;17.56;100.00;100748.50;5063519;28;20661;-76
2023/09/13 01:45:41;;;;;;;10.27;4.80;;;;;;;17.43;100.00;100748.50;5065431;28;20017;-76
2023/09/13 01:48:09;;;;;;;8.73;4.03;;;;;;;17.48;100.00;100752.22;5063200;28;20045;-75
2023/09/13 01:50:35;;;;;;;13.98;3.60;;;;;;;17.37;100.00;100749.31;5063651;28;20518;-75
2023/09/13 01:53:03;;;;;;;6.97;3.20;;;;;;;17.39;100.00;100760.72;5063346;28;20036;-76
2023/09/13 01:55:28;;;;;;;10.15;3.47;;;;;;;17.37;100.00;100754.69;5063985;28;20082;-76
2023/09/13 01:57:54;;;;;;;9.48;2.95;;;;;;;17.33;100.00;100754.31;5065709;28;20036;-75
2023/09/13 02:00:19;;;;;;;14.85;3.80;;;;;;;17.36;100.00;100742.25;5066471;28;20103;-75
2023/09/13 02:02:45;;;;;;;12.18;3.38;;;;;;;17.34;100.00;100744.34;5058514;28;20035;-76
2023/09/13 02:05:10;;;;;;;4.87;2.60;;;;;;;17.24;100.00;100744.75;5067866;28;20020;-76
2023/09/13 02:07:36;;;;;;;9.63;3.33;;;;;;;17.24;100.00;100740.19;5061076;28;20060;-76
2023/09/13 02:10:01;;;;;;;5.47;3.10;;;;;;;17.24;100.00;100740.19;5069918;28;20387;-75
2023/09/13 02:12:27;;;;;;;6.93;2.72;;;;;;;17.26;100.00;100735.41;5071159;28;20506;-75
2023/09/13 02:14:54;;;;;;;10.20;2.80;;;;;;;17.22;100.00;100744.13;5066898;28;20028;-75
2023/09/13 02:17:20;;;;;;;7.20;2.95;;;;;;;17.21;100.00;100754.09;5066241;28;20139;-75
2023/09/13 02:19:49;;;;;;;9.90;3.03;;;;;;;17.22;100.00;100761.13;5066750;28;20123;-75
2023/09/13 02:22:15;;;;;;;8.68;2.72;;;;;;;17.18;100.00;100761.75;5063638;28;20402;-77
2023/09/13 02:24:40;;;;;;;10.57;2.65;;;;;;;17.20;100.00;100754.28;5066345;28;20020;-74
2023/09/13 02:27:06;;;;;;;4.90;3.03;;;;;;;17.30;100.00;100771.75;5067075;28;20082;-76
2023/09/13 02:29:31;;;;;;;10.23;2.63;;;;;;;17.30;100.00;100766.34;5070502;28;20020;-76
2023/09/13 02:31:57;;;;;;;10.43;3.42;;;;;;;17.25;100.00;100762.59;5067019;28;20036;-76
2023/09/13 02:34:22;;;;;;;8.30;3.30;;;;;;;17.36;100.00;100774.66;5066442;28;20024;-76
2023/09/13 02:36:47;;;;;;;6.70;3.40;;;;;;;17.21;100.00;100762.19;5067487;28;20036;-76
2023/09/13 02:39:36;;;;;;;5.93;3.23;;;;;;;17.14;100.00;100771.28;5067688;28;20502;-76
2023/09/13 02:42:02;;;;;;;8.77;3.80;;;;;;;17.11;100.00;100777.91;5066541;28;20136;-76
2023/09/13 02:44:30;;;;;;;9.25;4.60;;;;;;;17.21;100.00;100781.06;5066068;28;20557;-75
2023/09/13 02:46:55;;;;;;;11.48;4.20;;;;;;;17.13;100.00;100770.47;5062778;28;20939;-75
2023/09/13 02:49:21;;;;;;;11.10;3.95;;;;;;;17.19;100.00;100771.53;5063026;28;20073;-74
2023/09/13 02:51:47;;;;;;;15.47;4.53;;;;;;;17.09;100.00;100769.19;5066016;28;20036;-75
2023/09/13 02:54:14;;;;;;;11.35;4.55;;;;;;;17.08;100.00;100764.84;5065854;28;20039;-75
2023/09/13 02:56:40;;;;;;;10.93;4.65;;;;;;;17.13;100.00;100770.47;5065794;28;20068;-75
2023/09/13 02:59:05;;;;;;;7.43;3.87;;;;;;;17.08;100.00;100767.53;5065849;28;20052;-76
2023/09/13 03:01:31;;;;;;;8.85;3.72;;;;;;;17.07;100.00;100765.91;5065983;28;20411;-76
2023/09/13 03:03:56;;;;;;;10.13;4.93;;;;;;;16.91;100.00;100760.88;5066728;28;20029;-75
2023/09/13 03:06:21;;;;;;;12.97;4.67;;;;;;;16.84;100.00;100761.69;5066027;28;20072;-76
2023/09/13 03:08:47;;;;;;;12.40;4.03;;;;;;;16.84;100.00;100761.69;5065674;28;20016;-75
2023/09/13 03:11:14;;;;;;;7.88;3.95;;;;;;;16.91;100.00;100760.88;5066065;28;20633;-76
2023/09/13 03:13:41;;;;;;;9.27;4.43;;;;;;;16.82;100.00;100752.97;5065377;28;20052;-76
2023/09/13 03:16:15;;;;;;;8.90;3.28;;;;;;;16.88;100.00;100759.44;5065225;28;20058;-76
2023/09/13 03:18:41;;;;;;;10.05;4.20;;;;;;;16.86;100.00;100758.81;5057150;28;20091;-77
2023/09/13 03:21:08;;;;;;;10.73;3.38;;;;;;;16.75;100.00;100745.88;5065714;28;20050;-76
2023/09/13 03:23:39;;;;;;;14.65;3.22;;;;;;;16.64;100.00;100750.78;5065112;28;20060;-75
2023/09/13 03:26:13;;;;;;;9.07;2.72;;;;;;;16.61;100.00;100737.72;5065723;28;20900;-77
2023/09/13 03:28:39;;;;;;;9.27;3.20;;;;;;;16.53;100.00;100742.47;5066438;28;20425;-76
2023/09/13 03:31:12;;;;;;;8.47;2.90;;;;;;;16.58;100.00;100737.31;5065656;28;20021;-75
2023/09/13 03:33:40;;;;;;;8.98;2.92;;;;;;;16.55;100.00;100743.94;5065013;28;20270;-76
2023/09/13 03:36:09;;;;;;;10.13;3.42;;;;;;;16.54;100.00;100738.75;5065516;28;20111;-77
2023/09/13 03:38:39;;;;;;;6.18;3.40;;;;;;;16.42;100.00;100733.94;5058328;28;20039;-76
2023/09/13 03:41:07;;;;;;;7.18;2.75;;;;;;;16.43;100.00;100732.91;5059851;28;20043;-76
2023/09/13 03:43:34;;;;;;;5.35;2.78;;;;;;;16.59;100.00;100741.66;5067762;28;20899;-75
2023/09/13 03:46:00;;;;;;;13.90;2.97;;;;;;;16.58;100.00;100731.94;5068770;28;20036;-77
2023/09/13 03:48:26;;;;;;;10.10;3.38;;;;;;;16.41;100.00;100721.50;5068882;28;20082;-77
2023/09/13 03:50:51;;;;;;;7.57;2.57;;;;;;;16.44;100.00;100731.88;5068962;28;20578;-76
2023/09/13 03:53:17;;;;;;;11.37;3.63;;;;;;;16.53;100.00;100731.69;5069027;28;20801;-77
2023/09/13 03:55:43;;;;;;;10.23;3.63;;;;;;;16.52;100.00;100732.72;5068948;28;20275;-76
2023/09/13 03:58:09;;;;;;;13.15;4.13;;;;;;;16.31;100.00;100712.97;5068394;28;20029;-76
2023/09/13 04:00:35;;;;;;;8.70;4.40;;;;;;;16.26;100.00;100723.50;5068922;28;20033;-76
2023/09/13 04:03:01;;;;;;;9.80;3.67;;;;;;;16.28;100.00;100726.00;5074802;28;20024;-75
2023/09/13 04:05:27;;;;;;;11.88;4.18;;;;;;;16.31;100.00;100739.91;5075318;28;20028;-76
2023/09/13 04:07:52;;;;;;;18.43;4.37;;;;;;;16.22;100.00;100724.94;5068902;28;20411;-77
2023/09/13 04:10:17;;;;;;;15.70;4.50;;;;;;;15.92;100.00;100722.53;5065063;28;20127;-77
2023/09/13 04:12:43;;;;;;;16.23;4.17;;;;;;;15.95;100.00;100735.56;5065013;28;20041;-76
2023/09/13 04:15:08;;;;;;;12.93;5.07;;;;;;;15.90;100.00;100732.66;5081027;28;20047;-77
2023/09/13 04:17:37;;;;;;;16.20;4.43;;;;;;;15.94;100.00;100746.53;5064511;28;20467;-77
2023/09/13 04:20:03;;;;;;;11.15;5.43;;;;;;;15.97;100.00;100738.91;5064626;28;20028;-77
2023/09/13 04:22:28;;;;;;;15.63;6.03;;;;;;;15.95;100.00;100738.25;5064824;28;20047;-77
2023/09/13 04:24:54;;;;;;;16.73;6.57;;;;;;;15.92;100.00;100741.38;5044587;28;20136;-77
2023/09/13 04:27:23;;;;;;;16.20;5.97;;;;;;;15.94;100.00;100741.97;5057805;28;20016;-77
2023/09/13 04:29:49;;;;;;;15.25;5.00;;;;;;;15.93;100.00;100736.81;5062795;28;20055;-76
2023/09/13 04:32:15;;;;;;;8.98;5.68;;;;;;;15.91;100.00;100730.78;5064876;28;20807;-77
2023/09/13 04:34:41;;;;;;;11.00;5.53;;;;;;;15.81;100.00;100733.84;5060553;28;20044;-77
2023/09/13 04:37:07;;;;;;;10.43;6.07;;;;;;;15.88;100.00;100742.78;5064839;28;20565;-77
2023/09/13 04:39:33;;;;;;;8.23;5.20;;;;;;;15.83;100.00;100735.28;5041025;28;20024;-77
2023/09/13 04:41:59;;;;;;;9.27;5.10;;;;;;;15.80;100.00;100740.22;5067530;28;20032;-77
2023/09/13 04:44:26;;;;;;;12.07;4.93;;;;;;;15.62;100.00;100728.06;5066678;28;20899;-77
2023/09/13 04:46:51;;;;;;;;;;;;;;;15.66;100.00;100746.50;5064862;28;20085;-77
2023/09/13 04:49:17;;;;;;;12.82;3.90;;;;;;;15.40;100.00;100731.81;5085020;28;19909;-77
2023/09/13 04:51:42;;;;;;;12.87;4.03;;;;;;;15.48;100.00;100745.16;5067338;28;20514;-78
2023/09/13 04:54:07;;;;;;;8.27;3.07;;;;;;;15.43;100.00;100744.06;5084067;28;20525;-77
2023/09/13 04:56:33;;;;;;;7.65;2.80;;;;;;;15.27;100.00;100742.50;5066339;28;20036;-78
2023/09/13 04:58:58;;;;;;;5.30;2.17;;;;;;;15.33;100.00;100750.59;5066533;28;20175;-78
2023/09/13 05:01:24;;;;;;;7.93;2.85;;;;;;;15.22;100.00;100742.22;5049734;28;20062;-78
2023/09/13 05:03:50;;;;;;;5.20;2.33;;;;;;;15.25;100.00;100752.63;5068197;28;20087;-78
2023/09/13 05:06:15;;;;;;;7.25;2.30;;;;;;;15.14;100.00;100748.56;5066240;28;20125;-77
2023/09/13 05:08:41;;;;;;;9.17;2.60;;;;;;;14.98;100.00;100746.97;5061570;28;20063;-79
2023/09/13 05:11:06;;;;;;;6.10;2.73;;;;;;;15.11;100.00;100754.34;5065455;28;20033;-79
2023/09/13 05:13:32;;;;;;;10.70;3.50;;;;;;;15.13;100.00;100749.59;5056898;28;20039;-79
2023/09/13 05:15:57;;;;;;;6.47;2.30;;;;;;;14.93;100.00;100742.16;5069512;28;20395;-80
2023/09/13 05:18:23;;;;;;;8.00;3.77;;;;;;;15.02;100.00;100744.72;5057006;28;20028;-79
2023/09/13 05:25:34;;;;;;;6.72;3.17;;;;;;;14.87;100.00;100752.88;5025070;28;20065;-79
2023/09/13 05:33:08;;;;;;;6.82;2.80;;;;;;;14.80;100.00;100768.91;4872220;29;20072;-80
2023/09/13 05:48:27;;;;;;;9.43;3.65;;;;;;;14.74;100.00;100778.53;4769262;30;20050;-80
2023/09/13 05:51:54;;;;;;;14.13;3.70;;;;;;;14.84;100.00;100778.25;4766842;30;20514;-79
2023/09/13 05:55:01;;;;;;;13.15;3.25;;;;;;;14.80;100.00;100773.44;4744789;30;20087;-78
2023/09/13 05:57:28;;;;;;;9.10;3.17;;;;;;;14.83;100.00;100790.03;4728441;30;20544;-79
2023/09/13 05:59:53;;;;;;;11.25;3.15;;;;;;;14.78;100.00;100782.53;4713961;30;20493;-78
2023/09/13 06:02:19;;;;;;;11.47;3.57;;;;;;;14.77;100.00;100786.25;4761107;30;20063;-79
2023/09/13 06:04:44;;;;;;;9.80;3.03;;;;;;;14.64;100.00;100775.34;4772410;30;20180;-78
2023/09/13 06:07:09;;;;;;;14.27;4.30;;;;;;;14.74;100.00;100791.16;4766529;30;20089;-79
2023/09/13 06:09:35;;;;;;;9.63;2.93;;;;;;;14.71;100.00;100789.69;4766781;30;20046;-78
2023/09/13 06:12:01;;;;;;;10.27;2.80;;;;;;;14.72;100.00;100803.94;4795568;29;20062;-76
2023/09/13 06:14:28;;;;;;;8.98;3.42;;;;;;;14.72;100.00;100799.41;4842964;29;20069;-79
2023/09/13 06:16:53;;;;;;;;;;;;;;;14.87;100.00;100806.63;4934586;28;20043;-78
2023/09/13 06:19:18;;;;;;;;;;;;;;;14.87;100.00;100810.13;4986028;28;20012;-79
2023/09/13 06:21:44;;;;;;;7.63;2.97;;;;;;;14.91;100.00;100802.50;4994065;28;19916;-79
2023/09/13 06:24:09;;;;;;;8.40;2.93;;;;;;;14.93;100.00;100800.47;5018844;28;20045;-79
2023/09/13 06:26:34;;;;;;;10.50;2.63;;;;;;;14.92;100.00;100799.66;5064204;28;20037;-80
2023/09/13 06:29:01;;;;;;;11.60;3.43;;;;;;;14.90;100.00;100803.53;5085301;28;20063;-78
2023/09/13 06:31:26;;;;;;;11.27;2.78;;;;;;;14.88;100.00;100802.91;5061985;28;20024;-78
2023/09/13 06:33:51;;;;;;;8.13;3.63;;;;;;;14.74;100.00;100791.16;5085220;28;20039;-78
2023/09/13 06:36:17;;;;;;;14.60;3.20;;;;;;;14.88;100.00;100802.91;5062759;28;20032;-78
2023/09/13 06:38:42;;;;;;;9.17;2.90;;;;;;;14.95;100.00;100803.81;5061050;28;20037;-78
2023/09/13 06:41:08;;;;;;;7.50;2.90;;;;;;;15.01;100.00;100804.88;5078861;28;20105;-78
2023/09/13 06:43:33;;;;;;;21.17;3.40;;;;;;;15.02;100.00;100806.56;5054759;28;20033;-77
2023/09/13 06:45:59;;;;;;;8.68;3.60;;;;;;;15.08;100.00;100811.19;5074752;28;20025;-78
2023/09/13 06:48:24;;;;;;;10.43;3.30;;;;;;;15.07;100.00;100814.88;5066671;28;20033;-79
2023/09/13 06:50:50;;;;;;;11.33;3.50;;;;;;;15.08;100.00;100814.72;5052387;28;20059;-78
2023/09/13 06:53:15;;;;;;;6.00;2.87;;;;;;;15.11;100.00;100822.38;5070601;28;20446;-80
2023/09/13 06:55:41;;;;;;;11.17;3.07;;;;;;;15.22;100.00;100826.44;5067453;28;20274;-77
2023/09/13 06:58:07;;;;;;;11.67;2.83;;;;;;;15.20;100.00;100823.09;5061857;28;20052;-78
2023/09/13 07:00:33;;;;;;;22.88;3.78;;;;;;;15.14;100.00;100829.25;5068468;28;20029;-78
2023/09/13 07:02:59;;;;;;;8.98;2.40;;;;;;;15.19;100.00;100827.66;5062598;28;20040;-78
2023/09/13 07:05:24;;;;;;;10.90;3.67;;;;;;;15.17;100.00;100824.31;5047588;28;20028;-77
2023/09/13 07:07:50;;;;;;;15.50;3.30;;;;;;;15.10;100.00;100826.13;5064434;28;20032;-78
2023/09/13 07:10:15;;;;;;;14.00;2.70;;;;;;;15.12;100.00;100837.50;5074045;28;20298;-77
2023/09/13 07:12:41;;;;;;;10.38;2.75;;;;;;;15.21;100.00;100840.91;5072946;28;20066;-78
2023/09/13 07:15:09;;;;;;;20.77;4.10;;;;;;;15.11;100.00;100835.84;5072565;28;20135;-77
2023/09/13 07:17:35;;;;;;;11.23;3.15;;;;;;;15.11;100.00;100833.16;5070684;28;20415;-78
2023/09/13 07:20:00;;;;;;;6.33;2.80;;;;;;;15.11;100.00;100829.63;5071457;28;20020;-78
2023/09/13 07:22:26;;;;;;;11.45;3.30;;;;;;;15.18;100.00;100835.91;5071422;28;20470;-78
2023/09/13 07:24:52;;;;;;;14.45;2.72;;;;;;;15.17;100.00;100834.22;5067701;28;20029;-78
2023/09/13 07:27:18;;;;;;;10.45;3.45;;;;;;;15.32;100.00;100836.88;5064953;28;20476;-78
2023/09/13 07:29:44;;;;;;;11.30;2.92;;;;;;;15.33;100.00;100828.59;5069327;28;20020;-78
2023/09/13 07:32:09;;;;;;;9.53;2.53;;;;;;;15.40;100.00;100828.69;5063447;28;20058;-78
2023/09/13 07:34:34;;;;;;;5.67;1.73;;;;;;;15.47;100.00;100840.31;5068107;28;20610;-78
2023/09/13 07:37:00;;;;;;;8.53;2.40;;;;;;;15.37;100.00;100834.44;5052977;28;20033;-77
2023/09/13 07:39:25;;;;;;;9.60;2.50;;;;;;;15.52;100.00;100823.59;5065475;28;20032;-78
2023/09/13 07:41:50;;;;;;;10.03;2.30;;;;;;;15.53;100.00;100831.50;5063686;28;20033;-77
2023/09/13 07:44:17;;;;;;;12.57;2.50;;;;;;;15.58;100.00;100837.13;5064200;28;20663;-80
2023/09/13 07:46:43;;;;;;;6.97;2.17;;;;;;;15.75;100.00;100828.81;5060878;28;20051;-79
2023/09/13 07:49:08;;;;;;;7.78;2.28;;;;;;;15.80;100.00;100834.44;5051268;28;20773;-77
2023/09/13 07:51:34;;;;;;;11.15;2.25;;;;;;;15.89;100.00;100827.88;5084528;28;20118;-78
2023/09/13 07:54:07;;;;;;;8.10;2.95;;;;;;;15.95;100.00;100827.13;5059806;28;20111;-77
2023/09/13 07:56:34;;;;;;;7.07;2.58;;;;;;;16.11;100.00;100839.47;5069525;28;20475;-79
2023/09/13 07:58:59;;;;;;;12.05;3.55;;;;;;;15.91;100.00;100823.16;5051992;28;20035;-79
2023/09/13 08:01:25;;;;;;;13.27;4.05;;;;;;;16.11;100.00;100825.13;5070068;28;20040;-78
2023/09/13 08:03:51;;;;;;;10.48;3.08;;;;;;;16.22;100.00;100833.53;5071055;28;20024;-80
2023/09/13 08:06:16;;;;;;;13.68;3.13;;;;;;;16.37;100.00;100852.25;5073976;28;20032;-79
2023/09/13 08:08:41;;;;;;;14.93;3.10;;;;;;;16.32;100.00;100832.31;5070533;28;20040;-80
2023/09/13 08:11:07;;;;;;;9.70;2.90;;;;;;;16.30;100.00;100835.22;5069964;28;20037;-79
2023/09/13 08:13:32;;;;;;;9.77;2.30;;;;;;;16.17;100.00;100829.75;5071957;28;20020;-80
2023/09/13 08:15:58;;;;;;;10.00;3.23;;;;;;;16.07;100.00;100840.06;5070435;28;20554;-80
2023/09/13 08:18:23;;;;;;;10.90;2.33;;;;;;;16.20;100.00;100861.66;5070663;28;20021;-79
2023/09/13 08:20:50;;;;;;;11.33;3.47;;;;;;;15.97;100.00;100846.59;5065710;28;20535;-81
2023/09/13 08:23:16;;;;;;;6.60;2.45;;;;;;;16.05;100.00;100837.53;5069026;28;20036;-79
2023/09/13 08:25:41;;;;;;;8.30;2.45;;;;;;;16.20;100.00;100832.03;5068975;28;20024;-77
2023/09/13 08:28:07;;;;;;;13.57;2.75;;;;;;;16.07;100.00;100835.50;5050891;28;20040;-77
2023/09/13 08:30:32;;;;;;;6.93;2.70;;;;;;;16.07;100.00;100826.59;5068160;28;20031;-79
2023/09/13 08:32:57;;;;;;;10.13;2.80;;;;;;;16.19;100.00;100825.00;5069065;28;20036;-78
2023/09/13 08:35:23;;;;;;;8.00;2.43;;;;;;;16.23;100.00;100831.66;5069285;28;20031;-78
2023/09/13 08:37:49;;;;;;;8.57;2.97;;;;;;;15.98;100.00;100820.50;5066182;28;20030;-78
2023/09/13 08:40:14;;;;;;;12.10;3.08;;;;;;;16.22;100.00;100851.53;5060992;28;20106;-78
2023/09/13 08:42:41;;;;;;;10.75;2.17;;;;;;;16.11;100.00;100830.53;5040659;28;20080;-78
2023/09/13 08:45:06;;;;;;;7.03;2.03;;;;;;;16.03;100.00;100820.75;5049361;28;20103;-77
2023/09/13 08:47:33;;;;;;;11.60;2.17;;;;;;;16.01;100.00;100817.41;5050630;28;20516;-77
2023/09/13 08:50:01;;;;;;;10.35;2.58;;;;;;;16.29;100.00;100822.78;5048754;28;20021;-77
2023/09/13 08:52:28;;;;;;;9.02;2.55;;;;;;;16.37;100.00;100825.31;5058248;28;20549;-77
2023/09/13 08:54:55;;;;;;;15.68;2.88;;;;;;;16.30;100.00;100797.50;5065217;28;20021;-77
2023/09/13 08:57:24;;;;;;;11.95;2.38;;;;;;;16.29;100.00;100808.47;5065251;28;20031;-77
2023/09/13 08:59:49;;;;;;;7.95;2.55;;;;;;;16.28;100.00;100821.13;5064068;28;20024;-77
2023/09/13 09:02:18;;;;;;;8.63;2.40;;;;;;;16.36;100.00;100829.03;5059858;28;20040;-76
2023/09/13 09:04:45;;;;;;;9.32;2.58;;;;;;;16.31;100.00;100839.56;5057285;28;20016;-76
2023/09/13 09:07:11;;;;;;;20.15;2.92;;;;;;;16.19;100.00;100828.53;5064750;28;20032;-76
2023/09/13 09:09:37;;;;;;;10.60;2.13;;;;;;;16.55;100.00;100838.28;5065386;28;20023;-77
2023/09/13 09:12:04;;;;;;;10.90;3.08;;;;;;;16.72;100.00;100809.13;5065130;28;20549;-76
2023/09/13 09:14:32;;;;;;;8.45;2.22;;;;;;;16.77;100.00;100798.56;5066347;28;20395;-77
2023/09/13 09:16:59;;;;;;;9.90;2.22;;;;;;;17.03;100.00;100784.34;5061430;28;20036;-77
2023/09/13 09:19:24;;;;;;;4.30;2.38;;;;;;;17.41;100.00;100788.34;5053927;28;20534;-77
2023/09/13 09:21:50;;;;;;;12.80;3.10;;;;;;;17.66;100.00;100772.38;5060472;28;20064;-76
2023/09/13 09:24:16;;;;;;;7.25;2.60;;;;;;;17.97;100.00;100728.50;5058359;28;20114;-77
2023/09/13 09:26:44;;;;;;;9.90;3.03;;;;;;;18.22;100.00;100708.91;5057292;28;20029;-76
2023/09/13 09:29:18;;;;;;;8.98;2.90;;;;;;;19.14;100.00;100647.22;5061246;28;20403;-77
2023/09/13 09:31:43;;;;;;;9.98;1.92;;;;;;;18.65;100.00;100536.06;5047681;28;20512;-77
2023/09/13 09:34:10;;;;;;;8.32;2.20;;;;;;;18.26;100.00;100523.66;5053555;28;20104;-77
2023/09/13 09:36:43;;;;;;;12.13;2.63;;;;;;;18.05;100.00;100558.13;5044269;28;20037;-76
2023/09/13 09:39:09;;;;;;;5.78;2.40;;;;;;;17.73;100.00;100568.00;5057409;28;20029;-77
2023/09/13 09:41:36;;;;;;;5.75;2.35;;;;;;;17.79;100.00;100585.19;5068255;28;20483;-77
2023/09/13 09:44:03;;;;;;;8.38;2.70;;;;;;;17.48;100.00;100513.88;5066836;28;20078;-77
2023/09/13 09:46:30;;;;;;;7.93;1.95;;;;;;;17.35;100.00;100538.22;5067244;28;20036;-77
2023/09/13 09:48:56;;;;;;;8.45;2.28;;;;;;;17.36;100.00;100523.69;5068643;28;20025;-77
2023/09/13 09:51:22;;;;;;;14.23;3.58;;;;;;;17.55;100.00;100571.38;5068951;28;20077;-76
2023/09/13 09:53:48;;;;;;;7.82;2.40;;;;;;;17.69;100.00;100501.97;5060535;28;20036;-76
2023/09/13 09:56:16;;;;;;;6.18;1.77;;;;;;;17.52;100.00;100547.50;5068754;28;20971;-77
2023/09/13 09:58:42;;;;;;;6.53;2.30;;;;;;;17.46;100.00;100537.56;5068141;28;20051;-76
2023/09/13 10:01:11;;;;;;;9.55;2.22;;;;;;;17.60;100.00;100514.88;5068336;28;20693;-76
2023/09/13 10:03:37;;;;;;;5.88;1.73;;;;;;;17.75;100.00;100522.72;5068382;28;20028;-77
2023/09/13 10:06:10;;;;;;;6.80;2.40;;;;;;;17.51;100.00;100370.41;5068097;28;20023;-76
2023/09/13 10:08:48;;;;;;;7.30;2.33;;;;;;;17.85;100.00;100441.25;5061786;28;20032;-76
2023/09/13 10:11:16;;;;;;;7.32;2.17;;;;;;;17.96;100.00;100385.72;5068089;28;20051;-76
2023/09/13 10:13:45;;;;;;;10.65;3.60;;;;;;;18.10;100.00;100320.56;5068041;28;20017;-76
2023/09/13 10:16:12;;;;;;;6.03;2.28;;;;;;;18.07;100.00;100215.63;5068143;28;20117;-76
2023/09/13 10:18:44;;;;;;;5.75;1.95;;;;;;;18.18;100.00;100303.22;5067932;28;20068;-76
2023/09/13 10:21:10;;;;;;;8.65;2.10;;;;;;;18.36;100.00;100278.13;5068180;28;20044;-76
2023/09/13 10:23:41;;;;;;;4.85;1.98;;;;;;;18.37;100.00;100293.25;5063378;28;20020;-76
2023/09/13 10:26:09;;;;;;;7.07;2.05;;;;;;;18.49;100.00;100306.84;5064855;28;20403;-76
2023/09/13 10:28:37;;;;;;;7.60;2.28;;;;;;;18.50;100.00;100276.09;5059502;28;20027;-76
2023/09/13 10:31:07;;;;;;;8.50;2.70;;;;;;;18.24;100.00;100258.28;5080425;28;20047;-77
2023/09/13 10:33:35;;;;;;;8.40;2.22;;;;;;;18.34;100.00;100282.91;5067871;28;20028;-77
2023/09/13 10:36:06;;;;;;;6.95;1.92;;;;;;;18.33;100.00;100159.63;5067737;28;20027;-77
2023/09/13 10:38:38;;;;;;;6.25;2.33;;;;;;;18.38;100.00;100059.81;5067501;28;20036;-76
2023/09/13 10:41:07;;;;;;;7.03;1.77;;;;;;;18.09;100.00;99989.34;5067677;28;20866;-77
2023/09/13 10:43:32;;;;;;;7.82;2.25;;;;;;;18.08;100.00;100065.22;5067795;28;20020;-77
2023/09/13 10:45:59;;;;;;;9.63;2.90;;;;;;;18.23;100.00;100030.50;5067610;28;20082;-77
2023/09/13 10:48:25;;;;;;;5.80;1.45;;;;;;;18.35;100.00;100022.44;5067552;28;20021;-77
2023/09/13 10:50:54;;;;;;;5.35;1.92;;;;;;;18.34;100.00;99934.31;5067645;28;20042;-76
2023/09/13 10:53:20;;;;;;;7.28;1.80;;;;;;;18.41;100.00;99961.25;5067576;28;20664;-76
2023/09/13 10:55:47;;;;;;;8.20;2.85;;;;;;;18.61;100.00;99985.22;5067513;28;20086;-77
2023/09/13 10:58:20;;;;;;;3.28;1.63;;;;;;;18.88;100.00;99994.56;5056614;28;20020;-77
2023/09/13 11:00:47;;;;;;;9.07;1.70;;;;;;;18.53;100.00;99818.81;5065090;28;20032;-76
2023/09/13 11:03:16;;;;;;;10.82;1.80;;;;;;;18.81;100.00;100050.63;5048615;28;20032;-76
2023/09/13 11:05:46;;;;;;;10.80;1.90;;;;;;;18.44;100.00;99904.00;5047583;28;20040;-77
2023/09/13 11:08:26;;;;;;;9.82;1.80;;;;;;;18.50;100.00;100022.81;5047102;28;20039;-76
2023/09/13 11:10:52;;;;;;;9.35;1.98;;;;;;;18.71;100.00;99988.19;5049254;28;20456;-77
2023/09/13 11:13:18;;;;;;;8.20;2.13;;;;;;;18.38;100.00;99927.41;5039269;28;20422;-76
2023/09/13 11:15:53;;;;;;;12.00;1.92;;;;;;;18.23;100.00;99835.16;5047376;28;20033;-76
2023/09/13 11:18:18;;;;;;;7.55;1.90;;;;;;;18.37;100.00;99979.78;5054357;28;20040;-76
2023/09/13 11:20:44;;;;;;;7.77;2.60;;;;;;;17.45;100.00;99643.56;5047404;28;20083;-78
2023/09/13 11:23:10;;;;;;;8.98;1.70;;;;;;;17.68;100.00;99714.81;5055533;28;20032;-77
2023/09/13 11:26:00;;;;;;;6.07;1.98;;;;;;;17.99;100.00;99689.34;5047147;28;20032;-78
2023/09/13 11:28:38;;;;;;;4.30;1.48;;;;;;;17.66;100.00;99553.09;5057007;28;20035;-77
2023/09/13 11:31:05;;;;;;;4.45;1.55;;;;;;;17.65;100.00;99716.09;5048142;28;20075;-76
2023/09/13 11:33:37;;;;;;;5.82;1.60;;;;;;;17.66;100.00;99858.06;5048886;28;20024;-77
2023/09/13 11:36:03;;;;;;;16.90;2.58;;;;;;;17.56;100.00;99727.44;5050073;28;20025;-77
2023/09/13 11:38:30;;;;;;;10.20;1.77;;;;;;;17.32;100.00;99732.81;5055623;28;20409;-75